Nearby METAR Reports

 

KHOB - Hobbs, New Mexico, USA
Distance from station: S 40mi, 65km
Updated: Wed, 20-Feb-2019 2:55am MST
Clear
Clear
 Wind from SW
Wind: SW 7 mph , 11 km/h
Temperature: 28°F , -2°C
Wind Chill: 21°F , -6°C
Dew Point: 14°F , -10°C
Humidity: 55%
Barometer: 29.89 inHg , 1012.2 hPa
Clouds: Clear
Visibility: 10 miles , 16 km
2019/02/20 09:55 KHOB 200955Z AUTO 23006KT 10SM CLR M02/M10 A2989 RMK AO2
KGNC - Seminole, Texas, USA
Distance from station: SE 55mi, 89km
Updated: Wed, 20-Feb-2019 2:35am MST
Clear
Clear
 Wind from SW
Wind: SW 7 mph , 11 km/h
Temperature: 23°F , -5°C
Wind Chill: 15°F , -9°C
Dew Point: 18°F , -8°C
Humidity: 80%
Barometer: 29.93 inHg , 1013.5 hPa
Clouds: Clear
Visibility: 10 miles , 16 km
2019/02/20 09:35 KGNC 200935Z AUTO 23006KT 10SM CLR M05/M08 A2993 RMK AO2 T10461085
 
KROW - Roswell, New Mexico, USA
Distance from station: W 67mi, 108km
Updated: Wed, 20-Feb-2019 2:51am MST
Clear
Clear
 Wind from W
Wind: W 10 mph , 17 km/h
Temperature: 27°F , -3°C
Wind Chill: 18°F , -8°C
Dew Point: 16°F , -9°C
Humidity: 64%
Barometer: 29.85 inHg , 1010.8 hPa
Clouds: Clear
Visibility: 10 miles , 16 km
2019/02/20 09:51 KROW 200951Z 26009KT 10SM CLR M03/M09 A2985 RMK AO2 SLP109 T10331094
KATS - Artesia, New Mexico, USA
Distance from station: WSW 71mi, 114km
Updated: Wed, 20-Feb-2019 2:55am MST
Clear
Clear
 Wind from W
Wind: W 10 mph , 17 km/h
Temperature: 30°F , -1°C
Wind Chill: 21°F , -6°C
Dew Point: 10°F , -12°C
Humidity: 43%
Barometer: 29.89 inHg , 1012.2 hPa
Clouds: Clear
Visibility: 10 miles , 16 km
2019/02/20 09:55 KATS 200955Z AUTO 26009KT 10SM CLR M01/M12 A2989 RMK AO2
 
KCVS - Cannon AFB,Clovis, New Mexico, USA
Distance from station: 0 78mi, 125km
Updated: Wed, 20-Feb-2019 1:58am MST
Clear
Clear
 Wind from W
Wind: W 20 mph , 31 km/h
Temperature: 23°F , -5°C
Wind Chill: 8°F , -13°C
Dew Point: 18°F , -8°C
Humidity: 80%
Barometer: 29.82 inHg , 1009.8 hPa
Clouds: Clear
Visibility: 10 miles , 16 km
2019/02/20 08:58 KCVS 200858Z AUTO 27017KT 10SM CLR M05/M08 A2982 RMK AO2 SLP123 T10511079 55007 $
KE11 - Andrews, Texas, USA
Distance from station: SE 78mi, 126km
Updated: Wed, 20-Feb-2019 2:35am MST
Clear
Clear
 Wind from WSW
Wind: WSW 8 mph , 13 km/h
Temperature: 28°F , -2°C
Wind Chill: 20°F , -7°C
Dew Point: 18°F , -8°C
Humidity: 64%
Barometer: 29.91 inHg , 1012.9 hPa
Clouds: Clear
Visibility: 10 miles , 16 km
2019/02/20 09:35 KE11 200935Z AUTO 25007KT 10SM CLR M02/M08 A2991 RMK AO2 T10211085
 
KCNM - Carlsbad, New Mexico, USA
Distance from station: SW 82mi, 132km
Updated: Wed, 20-Feb-2019 2:53am MST
Clear
Clear
 Wind from calm
Wind: Calm
Temperature: 36°F , 2°C
Dew Point: 10°F , -12°C
Humidity: 35%
Barometer: 29.89 inHg , 1012.2 hPa
Clouds: Clear
Visibility: 10 miles , 16 km
2019/02/20 09:53 KCNM 200953Z AUTO 00000KT 10SM CLR 02/M12 A2989 RMK AO2 SLP119 T00171117
KCVN - Clovis Muni, New Mexico, USA
Distance from station: N 83mi, 133km
Updated: Wed, 20-Feb-2019 1:56am MST
Clear
Clear
 Wind from W
Wind: W 18 mph , 30 km/h, Gust: 25 mph , 41 km/h
Temperature: 21°F , -6°C
Wind Chill: 6°F , -14°C
Dew Point: 19°F , -7°C
Humidity: 93%
Barometer: 29.81 inHg , 1009.5 hPa
Clouds: Clear
Visibility: 10 miles , 16 km
2019/02/20 08:56 KCVN 200856Z AUTO 26016G22KT 10SM CLR M06/M07 A2981 RMK AO2 SLP127 60000 T10561067 56005 FZRANO
 
KLBB - Lubbock, Texas, USA
Distance from station: ENE 92mi, 149km
Updated: Wed, 20-Feb-2019 2:53am MST
Clear
Clear
 Wind from SW
Wind: SW 8 mph , 13 km/h
Temperature: 25°F , -4°C
Wind Chill: 16°F , -9°C
Dew Point: 19°F , -7°C
Humidity: 80%
Barometer: 29.83 inHg , 1010.2 hPa
Clouds: Clear
Visibility: 9 miles , 14 km
2019/02/20 09:53 KLBB 200953Z 23007KT 9SM CLR M04/M07 A2983 RMK AO2 SLP116 T10441072 $
KINK - Wink, Texas, USA
Distance from station: S 101mi, 163km
Updated: Wed, 20-Feb-2019 2:53am MST
Clear
Clear
 Wind from W
Wind: W 5 mph , 7 km/h
Temperature: 30°F , -1°C
Wind Chill: 25°F , -4°C
Dew Point: 16°F , -9°C
Humidity: 55%
Barometer: 29.93 inHg , 1013.5 hPa
Clouds: Clear
Visibility: 10 miles , 16 km
2019/02/20 09:53 KINK 200953Z AUTO 26004KT 10SM CLR M01/M09 A2993 RMK AO2 SLP134 T10061094
 
KMAF - Midland, Texas, USA
Distance from station: SE 111mi, 179km
Updated: Wed, 20-Feb-2019 2:53am MST
Clear
Clear
 Wind from SW
Wind: SW 9 mph , 15 km/h
Temperature: 30°F , -1°C
Wind Chill: 22°F , -6°C
Dew Point: 23°F , -5°C
Humidity: 75%
Barometer: 29.92 inHg , 1013.2 hPa
Clouds: Clear
Visibility: 10 miles , 16 km
2019/02/20 09:53 KMAF 200953Z 22008KT 10SM CLR M01/M05 A2992 RMK AO2 SLP133 T10111050
KSRR - Sierra B/Ruidoso, New Mexico, USA
Distance from station: W 127mi, 204km
Updated: Thu, 14-Feb-2019 6:15am MST
NOT Current
Clear
Clear
 Wind from NNW
Wind: NNW 14 mph , 22 km/h, Gust: 22 mph , 35 km/h
Temperature: 46°F , 8°C
Wind Chill: 40°F , 4°C
Dew Point: 18°F , -8°C
Humidity: 32%
Barometer: 30.01 inHg , 1016.3 hPa
Clouds: Clear
Visibility: 10 miles , 16 km
2019/02/14 13:15 KSRR 141315Z AUTO 34012G19KT 10SM CLR 08/M08 A3001 RMK AO2
 
KGDP - Guadalupe Pass, Texas, USA
Distance from station: SW 130mi, 209km
Updated: Wed, 20-Feb-2019 2:51am MST
Clear
Clear
 Wind from WSW
Wind: WSW 25 mph , 41 km/h, Gust: 33 mph , 54 km/h
Temperature: 28°F , -2°C
Wind Chill: 13°F , -11°C
Dew Point: 9°F , -13°C
Humidity: 43%
Barometer: 29.88 inHg , 1011.9 hPa
Clouds: Clear
Visibility: 10 miles , 16 km
2019/02/20 09:51 KGDP 200951Z AUTO 24022G29KT 10SM CLR M02/M13 A2988 RMK AO2 PK WND 25032/0857 SLP123 T10221128